Pagrindinis puslapis
METAR-TAF:

METAR-TAF

Oro uostai :

Tarantas, Italija

platuma: 40-31N, ilguma: 017-24E, Aukštis: 64 m

Dabartinis oras

Ataskaita buvo paskelbta 25 minutes, ne 16:50 UTC
Vėjas 10 kt iš Šiaurės/Šiaurės Rytų
Temperatūra 9°C
Drėgmė 87%
Slėgis 1029 hPa
Matomumas 10 km arba daugiau
nėra debesų žemiau 1500 m ir nėra kamuolinių lietaus debesų

METAR: LIBG 221650Z 03010KT CAVOK 09/07 Q1029

Laikas: 18:15 (17:15 UTC)

Prognozė

Ataskaita buvo paskelbta 3 valandos ir 15 minutes, ne 14:00 UTC
Prognozė galioja nuo 22 metu 15 UTC su 22 metu 24 UTC
Vėjas 7 kt iš Šiaurės
Matomumas 10 km arba daugiau
nėra debesų žemiau 1500 m ir nėra kamuolinių lietaus debesų

TAF: LIBG 221400Z 2215/2224 01007KT CAVOK

Orai ataskaitas ir orų prognozės (METAR, TAF).

turimą stotys yra geltonos ir raudonos taškus žemėlapyje.

Perkelti pele per norėdami pamatyti stoties vardą.

Tada spustelėkite, norėdami matyti oro stebėjimo ir prognozės.

Norėdami pakeisti žemėlapį: spustelėkite ant žalios mygtukų su juodo kryžiaus žemyn,; žalią mygtuką su brūkšneliu, jei norite nutolinti; arba žalių rodyklių gretimoms žemėlapius.


METAR-TAF: